Georgetown, SC

8:18 AM EST on December 28, 2014 (GMT -0500)
Litchfield Beach | Change Station
CLOSE
Current Station
Personal Weather Station
Location: Pawleys Island, SC
Elevation: 10 ft
Nearby Weather Stations

Elev 10 ft 33.47 °N, 79.10 °W | Updated 7 seconds ago

Partly Cloudy
Partly Cloudy
54.3 °F
Feels Like 54.3 °F
N
0.0
Wind Variable Wind from North
Gusts 0.0 mph

Today
High -- | Low -- °F
--% Chance of Precip.
Yesterday
High -- | Low -- °F
Precip. -- in
7:20 AM 5:17 PM
Waxing Crescent, 47% visible
Pressure 30.16 in
Visibility 7.0 miles
Clouds Mostly Cloudy 4700 ft
Mostly Cloudy 12000 ft
Dew Point 47 °F
Humidity 77%
Rainfall 0.00 in
Snow Depth Not available.
UV 0 out of 12
Pollen 2.60 out of 12
Air Quality Not available.
Flu Activity Not available.
METAR KHYW 281315Z AUTO 00000KT 7SM BKN047 BKN120 10/10 A3016 RMK AO2

More Conditions Fewer Conditions

Pressure 30.16 in
Visibility 7.0 miles
Clouds Mostly Cloudy 4700 ft
Mostly Cloudy 12000 ft
Dew Point 47 °F
Humidity 77%
Rainfall 0.00 in
Snow Depth Not available.
UV 0 out of 12
Pollen 2.60 out of 12
Air Quality Not available.
Flu Activity Not available.
METAR KHYW 281315Z AUTO 00000KT 7SM BKN047 BKN120 10/10 A3016 RMK AO2

More Conditions Fewer Conditions

10-Day Weather Forecast

Almanac

Astronomy

Dec. 28, 2014 Rise Set
Actual Time
Civil Twilight
Nautical Twilight
Astronomical Twilight
Moon
Length of Visible Light
Length of Day
Tomorrow will be .
, % of the Moon is Illuminated

Today's Extremes

State Highs State Lows

Community

WunderPhotos

Upload Photos

1,781,256 photos uploaded!

WunderBlogs® & News

Nearby

Air Quality

  Air Quality AQ Index Pollutant
Not available.

Snow Depth

Station Depth Elevation

Earthquake Activity

City Distance Mag. Time & Date
Minimum magnitude displayed is 2.5.

Coastal Water Temperatures

Place Temperature

Nearby Weather Stations